Time;durP1;ratioP1;P1;durP2;ratioP2;P2;SDS_P1;SDS_P2;PMS_P1;PMS_P2;Temp;Humidity;BMP_temperature;BMP_pressure;BME280_temperature;BME280_humidity;BME280_pressure;Samples;Min_cycle;Max_cycle;Signal;HPM_P1;HPM_P2
2024/03/15 00:00:09;;;;;;;6.50;1.88;;;11.20;63.30;;;6.69;100.00;95249.78;4969729;28;20034;-51
2024/03/15 00:02:35;;;;;;;3.53;1.63;;;11.20;63.30;;;6.69;100.00;95246.34;4971042;28;20060;-56
2024/03/15 00:05:01;;;;;;;4.20;1.67;;;11.20;63.30;;;6.65;100.00;95245.25;4971271;28;20050;-56
2024/03/15 00:07:27;;;;;;;2.25;1.60;;;11.20;63.20;;;6.60;100.00;95243.34;4969378;28;20026;-53
2024/03/15 00:09:53;;;;;;;1.95;1.67;;;11.20;63.20;;;6.61;100.00;95241.47;4971252;28;20029;-52
2024/03/15 00:12:18;;;;;;;3.53;1.40;;;11.20;63.20;;;6.58;100.00;95240.16;4972391;28;20061;-51
2024/03/15 00:14:44;;;;;;;3.53;1.30;;;11.20;63.20;;;6.56;100.00;95238.78;4971118;28;20109;-54
2024/03/15 00:17:11;;;;;;;3.00;1.58;;;11.20;63.30;;;6.60;100.00;95245.19;4971312;28;20030;-52
2024/03/15 00:19:38;;;;;;;2.78;1.52;;;11.20;63.30;;;6.65;100.00;95246.06;4969747;28;20030;-51
2024/03/15 00:22:06;;;;;;;2.85;1.40;;;11.20;63.30;;;6.62;100.00;95241.25;4971130;28;20382;-53
2024/03/15 00:24:33;;;;;;;3.72;1.50;;;11.20;63.30;;;6.57;100.00;95241.19;4968417;28;20038;-53
2024/03/15 00:26:59;;;;;;;3.45;1.30;;;11.10;63.10;;;6.54;100.00;95244.31;4969572;28;20038;-56
2024/03/15 00:29:29;;;;;;;2.55;1.48;;;11.10;63.10;;;6.49;100.00;95241.63;4969137;28;20212;-52
2024/03/15 00:31:59;;;;;;;2.85;1.38;;;11.10;63.10;;;6.45;100.00;95245.78;4969544;28;20023;-52
2024/03/15 00:34:25;;;;;;;1.95;1.50;;;11.00;63.00;;;6.38;100.00;95247.84;4968823;28;20054;-56
2024/03/15 00:36:53;;;;;;;2.00;1.45;;;11.00;63.00;;;6.35;100.00;95246.47;4965677;28;20038;-54
2024/03/15 00:39:22;;;;;;;2.15;1.30;;;11.00;63.10;;;6.32;100.00;95240.88;4974319;28;20037;-52
2024/03/15 00:41:48;;;;;;;3.90;1.75;;;10.90;63.00;;;6.19;100.00;95244.69;4971013;28;20331;-52
2024/03/15 00:44:17;;;;;;;2.38;1.40;;;10.90;63.00;;;6.13;100.00;95246.47;4971199;28;20461;-52
2024/03/15 00:46:42;;;;;;;2.25;1.58;;;10.90;63.10;;;6.17;100.00;95244.94;4967597;28;20512;-51
2024/03/15 00:49:10;;;;;;;2.42;1.50;;;10.80;63.10;;;6.15;100.00;95244.38;4971596;28;20022;-51
2024/03/15 00:51:37;;;;;;;2.05;1.48;;;10.80;63.20;;;6.04;100.00;95240.00;4974505;28;20045;-55
2024/03/15 00:54:04;;;;;;;2.30;1.40;;;10.80;63.10;;;5.95;100.00;95241.44;4973381;28;20116;-54
2024/03/15 00:56:30;;;;;;;2.53;1.80;;;10.70;63.00;;;5.92;100.00;95247.19;4971550;28;20049;-55
2024/03/15 00:58:56;;;;;;;2.30;1.35;;;10.60;63.10;;;5.92;100.00;95244.53;4974220;28;20030;-53
2024/03/15 01:01:22;;;;;;;1.98;1.40;;;10.60;63.20;;;5.86;100.00;95248.16;4971590;28;20034;-52
2024/03/15 01:03:48;;;;;;;1.45;1.15;;;10.50;63.20;;;5.83;100.00;95244.19;4973970;28;20030;-50
2024/03/15 01:06:14;;;;;;;6.82;1.60;;;10.50;63.40;;;5.83;100.00;95240.72;4972844;28;20026;-55
2024/03/15 01:08:40;;;;;;;4.07;1.20;;;10.50;63.40;;;5.85;100.00;95246.56;4973067;28;20030;-54
2024/03/15 01:11:07;;;;;;;2.10;1.40;;;10.50;63.60;;;5.86;100.00;95241.06;4974109;28;20026;-51
2024/03/15 01:13:33;;;;;;;2.17;1.30;;;10.50;63.60;;;5.87;100.00;95245.28;4972668;28;20034;-52
2024/03/15 01:16:03;;;;;;;1.63;1.00;;;10.50;63.70;;;5.89;100.00;95248.50;4974450;28;20022;-52
2024/03/15 01:18:29;;;;;;;1.75;1.20;;;10.50;63.70;;;5.91;100.00;95243.75;4972799;28;20421;-53
2024/03/15 01:20:55;;;;;;;1.20;1.10;;;10.50;63.70;;;5.81;100.00;95243.63;4974106;28;20021;-51
2024/03/15 01:23:20;;;;;;;3.97;1.10;;;10.50;63.70;;;5.85;100.00;95247.38;4973327;28;20084;-54
2024/03/15 01:25:47;;;;;;;1.42;1.30;;;10.50;63.70;;;5.91;100.00;95240.31;4973430;28;20032;-48
2024/03/15 01:28:14;;;;;;;2.13;1.25;;;10.50;63.70;;;5.90;100.00;95242.16;4971190;28;20030;-53
2024/03/15 01:30:45;;;;;;;1.55;1.20;;;10.50;63.80;;;5.90;100.00;95244.00;4972481;28;20034;-48
2024/03/15 01:33:10;;;;;;;1.33;1.20;;;10.50;63.70;;;5.84;100.00;95244.97;4973834;28;20022;-52
2024/03/15 01:35:37;;;;;;;1.60;0.90;;;10.50;63.70;;;5.81;100.00;95240.97;4973694;28;20026;-49
2024/03/15 01:38:03;;;;;;;2.38;1.20;;;10.40;63.70;;;5.80;100.00;95232.25;4972080;28;20121;-51
2024/03/15 01:40:33;;;;;;;1.60;1.10;;;10.40;63.60;;;5.78;100.00;95244.09;4973450;28;20033;-52
2024/03/15 01:42:59;;;;;;;1.50;1.20;;;10.40;63.60;;;5.74;100.00;95235.06;4973478;28;20032;-53
2024/03/15 01:45:25;;;;;;;3.35;1.20;;;10.40;63.70;;;5.71;100.00;95238.97;4974920;28;20026;-49
2024/03/15 01:47:51;;;;;;;2.30;1.15;;;10.40;63.60;;;5.68;100.00;95242.09;4971582;28;20037;-50
2024/03/15 01:50:17;;;;;;;2.10;1.20;;;10.40;63.70;;;5.72;100.00;95242.41;4972059;28;20029;-49
2024/03/15 01:52:44;;;;;;;5.85;1.20;;;10.30;63.80;;;5.69;100.00;95234.97;4971479;28;20508;-49
2024/03/15 01:55:10;;;;;;;1.85;1.38;;;10.40;63.80;;;5.71;100.00;95240.84;4971878;28;20018;-51
2024/03/15 01:57:39;;;;;;;4.45;1.20;;;10.40;63.90;;;5.69;100.00;95235.78;4973402;28;20044;-48
2024/03/15 02:00:10;;;;;;;2.72;1.20;;;10.30;63.90;;;5.69;100.00;95234.97;4972005;28;20025;-52
2024/03/15 02:02:45;;;;;;;3.55;1.30;;;10.30;63.90;;;5.69;100.00;95240.25;4968274;28;20117;-49
2024/03/15 02:05:10;;;;;;;1.58;1.20;;;10.40;64.10;;;5.69;100.00;95237.63;4969335;28;20022;-48
2024/03/15 02:07:37;;;;;;;2.47;1.27;;;10.40;64.00;;;5.70;100.00;95233.94;4971799;28;20026;-48
2024/03/15 02:10:15;;;;;;;1.63;1.40;;;10.40;64.10;;;5.71;100.00;95238.97;4971749;28;20022;-50
2024/03/15 02:12:41;;;;;;;1.55;1.40;;;10.40;65.00;;;5.77;100.00;95231.94;4967307;28;20385;-48
2024/03/15 02:15:09;;;;;;;1.73;1.00;;;10.40;64.30;;;5.83;100.00;95236.25;4972932;28;20481;-51
2024/03/15 02:17:37;;;;;;;1.90;1.20;;;10.40;64.30;;;5.86;100.00;95227.00;4972747;28;20153;-50
2024/03/15 02:20:11;;;;;;;1.42;1.00;;;10.50;64.40;;;5.92;100.00;95220.75;4971400;28;20018;-48
2024/03/15 02:22:40;;;;;;;2.17;1.20;;;10.50;64.40;;;5.97;100.00;95228.78;4973025;28;20041;-49
2024/03/15 02:25:07;;;;;;;3.42;1.10;;;10.50;64.40;;;6.04;100.00;95232.06;4969983;28;20026;-48
2024/03/15 02:27:33;;;;;;;2.28;1.30;;;10.60;64.40;;;6.11;100.00;95230.06;4970175;28;20140;-48
2024/03/15 02:30:00;;;;;;;2.03;1.10;;;10.60;64.40;;;6.18;100.00;95229.88;4972557;28;20022;-51
2024/03/15 02:32:26;;;;;;;2.25;1.17;;;10.70;64.40;;;6.24;100.00;95227.03;4971329;28;20018;-52
2024/03/15 02:34:54;;;;;;;1.25;1.05;;;10.70;64.30;;;6.25;100.00;95236.56;4971964;28;20026;-48
2024/03/15 02:37:19;;;;;;;2.80;1.30;;;10.80;64.30;;;6.28;100.00;95234.50;4971256;28;20022;-49
2024/03/15 02:39:51;;;;;;;1.92;1.20;;;10.80;64.20;;;6.30;100.00;95237.66;4972715;28;20100;-49
2024/03/15 02:42:18;;;;;;;1.20;1.00;;;10.80;64.10;;;6.21;100.00;95238.13;4968159;28;20481;-50
2024/03/15 02:44:44;;;;;;;1.85;1.10;;;10.80;64.00;;;6.27;100.00;95239.00;4976937;28;20109;-55
2024/03/15 02:47:10;;;;;;;3.08;1.17;;;10.90;64.00;;;6.34;100.00;95236.16;4972287;28;20041;-53
2024/03/15 02:49:36;;;;;;;1.73;1.00;;;10.90;64.10;;;6.39;100.00;95239.66;4971205;28;20244;-49
2024/03/15 02:52:03;;;;;;;1.90;1.08;;;10.90;64.00;;;6.35;100.00;95240.38;4964526;28;20405;-48
2024/03/15 02:54:28;;;;;;;4.00;1.25;;;10.90;63.90;;;6.47;100.00;95244.50;4971999;28;20026;-48
2024/03/15 02:56:55;;;;;;;2.53;1.10;;;10.90;64.00;;;6.62;100.00;95257.13;4967919;28;20033;-49
2024/03/15 02:59:23;;;;;;;1.55;1.08;;;11.00;64.00;;;6.68;100.00;95255.34;4971838;28;20022;-50
2024/03/15 03:01:51;;;;;;;1.30;1.10;;;11.00;63.90;;;6.67;100.00;95251.88;4963171;28;20030;-48
2024/03/15 03:04:20;;;;;;;4.28;1.13;;;11.10;63.90;;;6.69;100.00;95256.94;4971978;28;20477;-50
2024/03/15 03:06:46;;;;;;;1.35;1.02;;;11.10;63.70;;;6.68;100.00;95261.44;4970849;28;20076;-48
2024/03/15 03:09:20;;;;;;;1.75;1.17;;;11.20;63.70;;;6.71;100.00;95260.16;4973789;28;20026;-51
2024/03/15 03:11:47;;;;;;;1.73;1.20;;;11.20;63.70;;;6.79;100.00;95270.28;4972265;28;20025;-50
2024/03/15 03:14:14;;;;;;;1.60;1.10;;;11.20;63.50;;;6.81;100.00;95259.47;4970752;28;20098;-51
2024/03/15 03:16:42;;;;;;;3.05;1.27;;;11.30;63.50;;;6.85;100.00;95261.34;4972083;28;20067;-48
2024/03/15 03:19:08;;;;;;;2.05;1.27;;;11.30;63.40;;;6.86;100.00;95267.44;4970819;28;20401;-48
2024/03/15 03:21:34;;;;;;;1.50;1.10;;;11.30;63.40;;;6.88;100.00;95268.00;4971860;28;20026;-49
2024/03/15 03:24:00;;;;;;;3.33;1.20;;;11.40;63.30;;;6.85;100.00;95266.63;4971513;28;20594;-48
2024/03/15 03:26:27;;;;;;;2.63;1.30;;;11.40;63.20;;;6.85;100.00;95271.16;4971053;28;20029;-48
2024/03/15 03:28:55;;;;;;;3.30;1.38;;;11.40;63.00;;;6.89;100.00;95273.06;4969137;28;20472;-50
2024/03/15 03:31:21;;;;;;;1.65;1.20;;;11.50;63.00;;;6.97;100.00;95278.97;4973650;28;20369;-50
2024/03/15 03:33:47;;;;;;;6.95;1.50;;;11.50;63.10;;;7.01;100.00;95280.06;4968293;28;20049;-49
2024/03/15 03:36:12;;;;;;;1.90;1.25;;;11.50;63.00;;;6.94;100.00;95275.75;4970881;28;20065;-52
2024/03/15 03:38:39;;;;;;;2.53;1.20;;;11.60;62.90;;;6.90;100.00;95279.16;4971416;28;20497;-50
2024/03/15 03:41:06;;;;;;;2.17;1.10;;;11.60;62.80;;;6.90;100.00;95282.59;4971429;28;20022;-51
2024/03/15 03:43:32;;;;;;;2.72;1.27;;;11.60;62.60;;;6.90;100.00;95281.81;4971104;28;20389;-49
2024/03/15 03:45:58;;;;;;;3.03;1.30;;;11.60;62.60;;;6.88;100.00;95286.53;4971068;28;20033;-52
2024/03/15 03:48:24;;;;;;;3.15;1.10;;;11.50;62.60;;;6.82;100.00;95280.38;4969467;28;22346;-52
2024/03/15 03:50:49;;;;;;;2.30;1.13;;;11.50;62.50;;;6.83;100.00;95292.59;4971532;28;20529;-48
2024/03/15 03:53:15;;;;;;;2.60;1.30;;;11.50;62.60;;;6.77;100.00;95288.28;4971354;28;20441;-51
2024/03/15 03:55:41;;;;;;;2.78;1.35;;;11.50;62.60;;;6.76;100.00;95291.16;4970041;28;20358;-50
2024/03/15 03:58:12;;;;;;;1.60;1.30;;;11.40;62.60;;;6.73;100.00;95295.88;4971570;28;20109;-49
2024/03/15 04:00:38;;;;;;;1.45;1.23;;;11.40;62.70;;;6.82;100.00;95292.81;4970534;28;20033;-47
2024/03/15 04:03:04;;;;;;;2.53;1.50;;;11.40;62.70;;;6.86;100.00;95294.75;4966406;28;20381;-48
2024/03/15 04:05:31;;;;;;;1.83;1.42;;;11.40;62.80;;;6.95;100.00;95297.72;4968596;28;20026;-50
2024/03/15 04:07:57;;;;;;;2.60;1.58;;;11.40;62.90;;;7.11;100.00;95288.91;4964173;28;20062;-49
2024/03/15 04:10:26;;;;;;;3.28;1.80;;;11.50;63.20;;;7.23;100.00;95299.34;4979263;28;20101;-51
2024/03/15 04:12:54;;;;;;;1.90;1.20;;;11.70;63.20;;;7.28;100.00;95290.66;4977339;28;20038;-51
2024/03/15 04:15:20;;;;;;;1.77;1.33;;;11.80;63.00;;;7.31;100.00;95296.25;4979546;28;20030;-53
2024/03/15 04:17:46;;;;;;;4.68;2.03;;;11.80;62.90;;;7.45;100.00;95296.63;4973529;28;20036;-50
2024/03/15 04:20:12;;;;;;;7.28;1.85;;;11.90;62.80;;;7.71;100.00;95299.50;4977683;28;20061;-53
2024/03/15 04:22:42;;;;;;;3.47;1.92;;;12.10;63.60;;;7.84;100.00;95301.75;4972474;28;20030;-52
2024/03/15 04:25:16;;;;;;;3.55;1.50;;;12.30;62.70;;;7.96;98.65;95302.38;4975708;28;20054;-50
2024/03/15 04:27:43;;;;;;;3.15;1.60;;;12.40;62.40;;;8.00;98.54;95298.16;4977615;28;20116;-50
2024/03/15 04:30:13;;;;;;;3.50;1.52;;;12.50;62.00;;;8.05;98.39;95305.31;4978112;28;20044;-54
2024/03/15 04:32:51;;;;;;;2.83;1.70;;;12.60;61.80;;;7.99;99.74;95304.53;4972996;28;20179;-50
2024/03/15 04:35:17;;;;;;;4.35;1.75;;;12.60;61.50;;;7.94;99.78;95309.78;4977029;28;20054;-48
2024/03/15 04:37:47;;;;;;;2.17;1.50;;;12.60;61.20;;;7.95;99.55;95306.06;4983819;28;20025;-51
2024/03/15 04:40:16;;;;;;;3.03;1.35;;;12.60;61.10;;;7.96;99.47;95307.69;4977685;28;20033;-51
2024/03/15 04:42:41;;;;;;;2.03;1.55;;;12.70;61.80;;;8.00;99.54;95307.97;4981099;28;20556;-49
2024/03/15 04:45:11;;;;;;;3.08;1.52;;;12.70;61.00;;;8.05;99.17;95315.94;4974301;28;20153;-50
2024/03/15 04:47:39;;;;;;;3.42;1.67;;;12.70;61.00;;;8.09;99.17;95311.75;4979887;28;20038;-50
2024/03/15 04:50:09;;;;;;;3.30;1.90;;;12.70;60.90;;;8.15;98.40;95316.03;4970727;28;20022;-49
2024/03/15 04:52:36;;;;;;;3.75;1.70;;;12.80;60.90;;;8.21;98.46;95309.69;4974350;28;20071;-51
2024/03/15 04:55:04;;;;;;;3.75;1.85;;;12.80;60.80;;;8.22;99.36;95307.84;4972797;28;20547;-53
2024/03/15 04:57:30;;;;;;;4.05;1.52;;;12.80;60.70;;;8.16;100.00;95317.63;4979737;28;20033;-53
2024/03/15 04:59:56;;;;;;;4.50;1.88;;;12.80;60.60;;;8.05;100.00;95315.94;4967633;28;20162;-50
2024/03/15 05:02:21;;;;;;;2.70;1.52;;;12.80;60.50;;;7.99;100.00;95322.25;4973576;28;20026;-50
2024/03/15 05:04:49;;;;;;;2.95;2.00;;;12.80;60.50;;;7.93;100.00;95310.00;4974315;28;20022;-49
2024/03/15 05:07:15;;;;;;;2.95;1.70;;;12.70;61.30;;;7.92;100.00;95319.03;4973094;28;20489;-53
2024/03/15 05:09:41;;;;;;;3.53;2.00;;;12.70;60.60;;;7.86;100.00;95320.84;4974959;28;20022;-49
2024/03/15 05:12:08;;;;;;;3.30;2.05;;;12.60;60.60;;;7.86;100.00;95321.63;4981573;28;20029;-55
2024/03/15 05:14:35;;;;;;;5.53;2.10;;;12.60;60.70;;;7.87;100.00;95322.47;4974840;28;20049;-51
2024/03/15 05:17:02;;;;;;;3.22;1.48;;;12.60;61.70;;;7.84;100.00;95321.09;4983079;28;20060;-50
2024/03/15 05:19:29;;;;;;;4.03;1.83;;;12.50;60.90;;;7.86;100.00;95320.84;4972124;28;20051;-50
2024/03/15 05:21:55;;;;;;;2.55;1.70;;;12.50;61.00;;;7.84;100.00;95318.47;4979208;28;20149;-52
2024/03/15 05:24:20;;;;;;;2.17;1.70;;;12.50;61.10;;;7.84;100.00;95320.31;4975921;28;20079;-54
2024/03/15 05:26:47;;;;;;;2.00;1.80;;;12.50;61.20;;;7.85;100.00;95316.59;4981022;28;20100;-50
2024/03/15 05:29:14;;;;;;;5.97;1.70;;;12.50;61.30;;;7.87;100.00;95322.47;4976354;28;20054;-51
2024/03/15 05:31:40;;;;;;;3.65;1.88;;;12.50;61.30;;;7.79;100.00;95320.25;4971323;28;20405;-50
2024/03/15 05:34:07;;;;;;;2.85;1.88;;;12.50;61.40;;;7.79;100.00;95321.06;4976447;28;20019;-52
2024/03/15 05:36:35;;;;;;;3.60;2.00;;;12.50;61.40;;;7.75;100.00;95327.13;4976836;28;20131;-49
2024/03/15 05:39:01;;;;;;;3.35;1.60;;;12.50;61.40;;;7.80;100.00;95322.69;4977498;28;20063;-49
2024/03/15 05:41:27;;;;;;;4.78;1.80;;;12.40;61.40;;;7.76;100.00;95316.25;4978683;28;20116;-51
2024/03/15 05:43:53;;;;;;;8.15;2.08;;;12.40;61.40;;;7.78;100.00;95322.13;4973703;28;20018;-49
2024/03/15 05:46:20;;;;;;;4.65;2.58;;;12.40;61.50;;;7.84;100.00;95323.75;4981200;28;20036;-51
2024/03/15 05:48:46;;;;;;;4.30;2.60;;;12.50;61.60;;;7.91;100.00;95322.75;4971441;28;20044;-50
2024/03/15 05:51:12;;;;;;;3.70;2.13;;;12.50;61.60;;;7.89;100.00;95321.13;4978306;28;20514;-50
2024/03/15 05:53:38;;;;;;;5.25;2.70;;;12.50;61.60;;;7.94;100.00;95325.69;4969823;28;20118;-49
2024/03/15 05:56:04;;;;;;;3.90;2.20;;;12.60;61.70;;;8.00;100.00;95327.31;4974240;28;20018;-49
2024/03/15 05:58:30;;;;;;;3.83;2.10;;;12.60;61.60;;;8.03;100.00;95326.81;4974890;28;20532;-50
2024/03/15 06:00:56;;;;;;;3.95;1.90;;;12.70;61.60;;;8.10;100.00;95339.88;4973921;28;20037;-53
2024/03/15 06:03:22;;;;;;;2.75;1.88;;;12.70;61.50;;;8.16;100.00;95330.88;4975015;28;20028;-51
2024/03/15 06:05:47;;;;;;;3.20;2.00;;;12.70;61.50;;;8.17;100.00;95343.09;4971830;28;20034;-52
2024/03/15 06:08:13;;;;;;;2.33;1.70;;;12.80;61.40;;;8.22;100.00;95342.34;4970503;28;20480;-52
2024/03/15 06:10:39;;;;;;;5.45;1.90;;;12.80;61.30;;;8.24;100.00;95349.00;4972897;28;20435;-48
2024/03/15 06:13:05;;;;;;;4.28;2.00;;;12.90;61.30;;;8.28;100.00;95355.38;4980457;28;20448;-49
2024/03/15 06:15:31;;;;;;;3.88;1.70;;;12.90;61.30;;;8.27;100.00;95356.44;4980156;28;20022;-50
2024/03/15 06:17:57;;;;;;;6.18;1.77;;;13.00;61.20;;;8.33;100.00;95360.72;4982150;28;20033;-52
2024/03/15 06:20:23;;;;;;;2.33;1.55;;;13.00;61.00;;;8.30;100.00;95360.41;4978011;28;20037;-50
2024/03/15 06:22:50;;;;;;;2.63;1.42;;;13.00;61.00;;;8.34;100.00;95358.88;4976972;28;20095;-50
2024/03/15 06:25:15;;;;;;;1.80;1.38;;;13.10;61.00;;;8.40;99.74;95365.03;4981488;28;20037;-54
2024/03/15 06:27:44;;;;;;;7.15;1.80;;;13.10;60.90;;;8.47;98.47;95361.09;4975885;28;20392;-51
2024/03/15 06:30:12;;;;;;;3.95;1.75;;;13.10;60.70;;;8.54;96.82;95360.88;4977327;28;20515;-51
2024/03/15 06:32:39;;;;;;;3.80;1.45;;;13.10;60.70;;;8.63;97.22;95363.84;4975272;28;20049;-51
2024/03/15 06:35:27;;;;;;;4.97;1.80;;;13.20;60.60;;;8.70;96.04;95361.75;4978826;28;20022;-50
2024/03/15 06:37:57;;;;;;;2.95;1.63;;;13.30;60.50;;;8.80;94.86;95359.16;4969799;28;20493;-50
2024/03/15 06:40:45;;;;;;;2.63;1.35;;;13.40;60.30;;;8.89;94.57;95370.88;4973402;28;20053;-52
2024/03/15 06:43:13;;;;;;;3.58;1.60;;;13.50;60.10;;;8.99;92.75;95357.66;4981220;28;20026;-49
2024/03/15 06:48:18;;;;;;;5.80;2.20;;;13.80;59.70;;;9.24;90.77;95367.59;4976201;28;20113;-56
2024/03/15 06:52:34;;;;;;;2.08;1.70;;;13.90;59.50;;;9.35;90.71;95373.72;4971383;28;20027;-48
2024/03/15 06:53:50;;;;;;;5.97;2.22;;;14.00;59.20;;;9.45;89.00;95364.97;4974940;28;20026;-51
2024/03/15 06:56:16;;;;;;;4.70;2.00;;;14.10;59.10;;;9.54;87.50;95373.25;4975023;28;20053;-51
2024/03/15 06:58:43;;;;;;;4.22;1.85;;;14.20;58.80;;;9.64;86.68;95376.72;4976158;28;20026;-51
2024/03/15 07:01:11;;;;;;;3.70;2.03;;;14.30;58.70;;;9.75;87.82;95369.56;4968935;28;20022;-53
2024/03/15 07:03:38;;;;;;;3.30;1.92;;;14.40;58.60;;;9.82;87.81;95375.44;4971512;28;20034;-50
2024/03/15 07:06:04;;;;;;;3.20;1.58;;;14.40;58.50;;;9.86;87.55;95376.47;4974077;28;20018;-51
2024/03/15 07:08:32;;;;;;;2.47;1.90;;;14.50;58.40;;;9.91;87.03;95378.38;4972840;28;20025;-51
2024/03/15 07:10:58;;;;;;;5.47;1.63;;;14.50;58.30;;;9.93;86.62;95374.38;4976520;28;20064;-50
2024/03/15 07:13:24;;;;;;;2.75;1.88;;;14.60;58.20;;;9.97;86.29;95382.63;4981271;28;20068;-50
2024/03/15 07:15:50;;;;;;;3.67;2.30;;;14.60;58.00;;;10.00;85.77;95382.09;4976886;28;20030;-50
2024/03/15 07:18:15;;;;;;;2.75;2.00;;;14.70;57.90;;;10.04;86.34;95379.69;4970901;28;20017;-50
2024/03/15 07:20:41;;;;;;;3.05;1.80;;;14.80;57.80;;;10.08;85.51;95384.22;4968252;28;20026;-49
2024/03/15 07:23:07;;;;;;;2.72;1.80;;;14.80;57.60;;;10.13;85.49;95378.91;4954592;28;20041;-48
2024/03/15 07:25:35;;;;;;;4.57;1.85;;;15.00;57.50;;;10.19;86.45;95383.16;4974710;28;20037;-48
2024/03/15 07:28:02;;;;;;;3.63;1.90;;;15.10;57.30;;;10.26;86.51;95396.22;4973609;28;20377;-50
2024/03/15 07:30:28;;;;;;;2.60;1.75;;;15.20;57.20;;;10.32;86.32;95387.19;4974297;28;20036;-49
2024/03/15 07:32:55;;;;;;;2.92;2.00;;;15.30;57.20;;;10.41;86.13;95393.56;4972867;28;20071;-49
2024/03/15 07:35:21;;;;;;;4.78;1.90;;;15.30;57.00;;;10.48;84.61;95393.28;4971370;28;20014;-48
2024/03/15 07:37:47;;;;;;;4.60;2.17;;;15.40;56.80;;;10.52;85.02;95398.88;4978707;28;20622;-50
2024/03/15 07:40:14;;;;;;;4.72;2.42;;;15.50;56.80;;;10.57;87.51;95404.22;4974638;28;20390;-51
2024/03/15 07:42:45;;;;;;;3.58;2.17;;;15.60;56.80;;;10.60;87.04;95403.66;4967246;28;20183;-48
2024/03/15 07:45:11;;;;;;;5.55;2.22;;;15.60;56.70;;;10.67;86.81;95409.50;4976024;28;20512;-49
2024/03/15 07:47:37;;;;;;;5.10;1.95;;;15.70;56.60;;;10.71;86.46;95409.78;4977871;28;20136;-52
2024/03/15 07:50:04;;;;;;;5.50;2.13;;;15.80;56.50;;;10.72;85.66;95401.53;4969515;28;20030;-50
2024/03/15 07:52:31;;;;;;;2.40;1.95;;;15.80;56.30;;;10.76;86.30;95407.09;4976262;28;20026;-54
2024/03/15 07:54:57;;;;;;;5.53;2.88;;;15.90;56.30;;;10.76;86.47;95399.91;4972115;28;20050;-48
2024/03/15 07:57:23;;;;;;;6.18;1.88;;;15.90;56.20;;;10.79;86.52;95402.03;4979918;28;20072;-49
2024/03/15 07:59:48;;;;;;;2.38;1.67;;;15.90;56.20;;;10.85;88.52;95406.28;4969777;28;20469;-49
2024/03/15 08:02:14;;;;;;;3.47;2.30;;;16.00;56.30;;;10.97;88.75;95399.84;4971128;28;20030;-55
2024/03/15 08:04:45;;;;;;;4.22;2.15;;;16.20;56.30;;;11.17;87.28;95402.47;4974047;28;20106;-52
2024/03/15 08:07:11;;;;;;;3.70;1.98;;;16.50;56.70;;;11.43;84.33;95400.47;4974890;28;20034;-51
2024/03/15 08:09:37;;;;;;;1.80;1.52;;;16.80;55.80;;;11.60;83.48;95404.69;4974960;28;20049;-50
2024/03/15 08:12:04;;;;;;;2.67;1.65;;;17.00;55.50;;;11.66;79.17;95409.72;4983656;28;20392;-51
2024/03/15 08:14:32;;;;;;;2.70;1.60;;;17.20;55.10;;;11.74;78.27;95416.34;4976917;28;20030;-48
2024/03/15 08:16:58;;;;;;;4.13;1.77;;;17.30;54.70;;;11.86;77.10;95416.03;4979537;28;20030;-50
2024/03/15 08:19:23;;;;;;;2.00;1.50;;;17.40;54.40;;;11.88;76.88;95419.25;4974792;28;20477;-51
2024/03/15 08:21:51;;;;;;;4.32;1.60;;;17.40;54.10;;;11.90;75.35;95425.06;4978800;28;20515;-49
2024/03/15 08:24:17;;;;;;;3.03;1.63;;;17.50;53.70;;;12.02;75.48;95428.22;4973953;28;20060;-51
2024/03/15 08:26:43;;;;;;;2.30;1.70;;;17.60;53.30;;;12.34;75.48;95421.56;4974147;28;20108;-50
2024/03/15 08:29:10;;;;;;;4.93;1.40;;;17.90;53.10;;;12.52;74.72;95431.56;4973617;28;20118;-49
2024/03/15 08:31:35;;;;;;;3.35;1.25;;;18.20;52.90;;;12.71;71.77;95427.13;4975864;28;20212;-49
2024/03/15 08:34:04;;;;;;;2.13;1.48;;;18.40;52.50;;;12.95;72.13;95437.06;4976278;28;20453;-50
2024/03/15 08:36:32;;;;;;;1.80;1.33;;;18.60;52.20;;;13.00;70.29;95426.31;4978743;28;20113;-52
2024/03/15 08:38:58;;;;;;;5.43;1.38;;;18.70;51.80;;;12.98;70.95;95425.81;4979033;28;20034;-48
2024/03/15 08:41:24;;;;;;;4.32;1.63;;;18.60;51.50;;;12.93;71.71;95425.88;4980670;28;20018;-50
2024/03/15 08:43:49;;;;;;;1.77;1.40;;;18.60;51.50;;;12.94;73.56;95424.78;4976200;28;20036;-52
2024/03/15 08:46:16;;;;;;;5.05;1.83;;;18.50;51.60;;;12.90;73.11;95426.44;4979139;28;20068;-50
2024/03/15 08:48:42;;;;;;;3.15;1.50;;;18.50;51.50;;;13.00;74.66;95434.34;4970171;28;20042;-49
2024/03/15 08:51:11;;;;;;;2.78;1.20;;;18.60;51.60;;;13.01;73.92;95441.28;4977894;28;20427;-49
2024/03/15 08:53:37;;;;;;;2.88;1.42;;;18.50;51.60;;;12.92;73.74;95443.00;4971642;28;20059;-50
2024/03/15 08:56:04;;;;;;;1.50;1.40;;;18.40;51.60;;;12.92;73.85;95441.09;4979981;28;20496;-51
2024/03/15 08:58:29;;;;;;;1.50;1.40;;;18.30;51.50;;;12.80;73.48;95434.56;4978744;28;20053;-54
2024/03/15 09:00:57;;;;;;;3.83;1.70;;;18.20;51.40;;;12.70;74.59;95440.78;4969328;28;20065;-50
2024/03/15 09:03:24;;;;;;;1.65;1.50;;;18.10;51.50;;;12.77;74.61;95443.13;4971134;28;20026;-51
2024/03/15 09:05:50;;;;;;;2.80;1.25;;;18.10;51.50;;;12.93;76.10;95436.56;4974045;28;20096;-53
2024/03/15 09:08:15;;;;;;;3.63;1.52;;;18.30;51.60;;;13.23;75.13;95442.69;4971200;28;20033;-49
2024/03/15 09:10:42;;;;;;;4.28;1.63;;;18.70;51.60;;;13.64;72.68;95451.84;4979106;28;20022;-49
2024/03/15 09:13:09;;;;;;;3.13;2.10;;;19.10;51.20;;;14.02;70.02;95451.88;4981680;28;20026;-50
2024/03/15 09:15:35;;;;;;;2.15;1.70;;;19.60;50.80;;;14.36;70.00;95440.16;4979889;28;20138;-51
2024/03/15 09:18:02;;;;;;;4.25;1.58;;;20.10;50.50;;;14.72;66.43;95442.28;4977421;28;20061;-50
2024/03/15 09:22:58;;;;;;;1.83;1.50;;;21.00;49.90;;;15.41;62.23;95445.06;4972819;28;20397;-50
2024/03/15 09:25:26;;;;;;;2.05;1.77;;;21.40;48.60;;;15.77;62.41;95447.88;4968639;28;20096;-50
2024/03/15 09:27:53;;;;;;;2.67;1.50;;;21.90;48.10;;;16.14;61.16;95444.13;4975671;28;20076;-49
2024/03/15 09:30:26;;;;;;;2.33;1.60;;;22.30;47.50;;;16.43;58.47;95440.25;4976113;28;20496;-49
2024/03/15 09:32:53;;;;;;;2.33;1.85;;;22.70;46.80;;;16.83;58.49;95445.78;4978746;28;20032;-49
2024/03/15 09:35:20;;;;;;;1.85;1.70;;;23.10;46.30;;;17.22;57.59;95447.72;4974338;28;20022;-50
2024/03/15 09:37:53;;;;;;;3.05;2.00;;;23.50;45.70;;;17.58;55.92;95444.06;4978870;28;20034;-49
2024/03/15 09:40:20;;;;;;;;;;;23.90;45.20;;;17.83;53.20;95433.69;4971448;28;20034;-50
2024/03/15 09:42:48;;;;;;;3.50;2.13;;;24.30;45.50;;;18.00;52.27;95444.50;4974515;28;20005;-51
2024/03/15 09:45:18;;;;;;;3.28;2.10;;;24.70;43.80;;;18.28;50.19;95445.00;4977434;28;20445;-51
2024/03/15 09:47:50;;;;;;;5.15;2.08;;;25.00;42.60;;;18.58;50.71;95448.63;4970826;28;20077;-52
2024/03/15 09:50:21;;;;;;;4.68;2.60;;;25.20;42.00;;;18.65;48.42;95438.16;4966567;28;20027;-53
2024/03/15 09:52:52;;;;;;;4.07;2.58;;;25.40;41.40;;;18.81;48.73;95433.09;4970498;28;20026;-52
2024/03/15 09:55:21;;;;;;;6.57;2.45;;;25.60;40.70;;;18.99;49.11;95436.56;4977561;28;20077;-51
2024/03/15 09:57:50;;;;;;;4.32;2.47;;;25.80;41.20;;;19.34;47.42;95436.44;4978944;28;20034;-53
2024/03/15 10:00:23;;;;;;;4.80;2.75;;;26.10;39.80;;;19.21;48.71;95442.81;4969568;28;20029;-53
2024/03/15 10:02:52;;;;;;;4.32;2.40;;;26.30;39.00;;;19.26;48.05;95432.66;4968511;28;20030;-49
2024/03/15 10:05:20;;;;;;;3.25;2.50;;;26.50;38.80;;;19.22;48.65;95434.41;4974477;28;20365;-51
2024/03/15 10:07:49;;;;;;;2.70;2.20;;;26.50;38.10;;;19.50;48.74;95429.38;4960862;28;20033;-49
2024/03/15 10:10:17;;;;;;;5.18;2.70;;;26.60;38.30;;;19.56;48.27;95430.00;4980982;28;20060;-54
2024/03/15 10:12:45;;;;;;;3.97;2.85;;;26.80;37.80;;;19.53;47.17;95439.53;4976444;28;20025;-54
2024/03/15 10:15:18;;;;;;;2.67;2.47;;;26.80;37.40;;;19.67;47.48;95433.94;4983807;28;20071;-50
2024/03/15 10:17:48;;;;;;;4.20;2.83;;;26.90;37.20;;;19.91;47.24;95427.94;4969059;28;20065;-55
2024/03/15 10:20:19;;;;;;;4.57;2.80;;;27.10;37.20;;;19.97;46.51;95432.03;4976498;28;20026;-52
2024/03/15 10:22:54;;;;;;;4.97;2.90;;;27.30;37.50;;;20.03;46.19;95428.00;4972443;28;20113;-51
2024/03/15 10:25:25;;;;;;;4.68;3.10;;;27.50;36.50;;;20.31;47.28;95417.47;4973259;28;20401;-50